Time,TemperatureF,DewpointF,PressureIn,WindDirection,WindDirectionDegrees,WindSpeedMPH,WindSpeedGustMPH,Humidity,HourlyPrecipIn,Conditions,Clouds,dailyrainin,SoftwareType,DateUTC
2013-07-03 00:01:00,72.0,70.0,30.06,North,5,0.0,1.0,93,0.00,,,0.10,,2013-07-03 04:01:00,
2013-07-03 00:11:00,72.0,70.0,30.06,North,5,0.0,1.0,93,0.00,,,0.10,,2013-07-03 04:11:00,
2013-07-03 00:34:00,72.0,70.0,30.06,North,5,0.0,0.0,93,0.00,,,0.10,,2013-07-03 04:34:00,
2013-07-03 00:43:00,72.0,70.0,30.06,North,5,0.0,0.0,94,0.00,,,0.10,,2013-07-03 04:43:00,
2013-07-03 00:52:00,72.0,70.0,30.06,North,5,0.0,0.0,94,0.00,,,0.10,,2013-07-03 04:52:00,
2013-07-03 01:11:00,72.0,70.0,30.06,North,5,0.0,0.0,94,0.00,,,0.10,,2013-07-03 05:11:00,
2013-07-03 01:38:00,72.0,70.0,30.05,North,5,0.0,0.0,94,0.00,,,0.10,,2013-07-03 05:38:00,
2013-07-03 01:47:00,72.0,70.0,30.05,North,5,0.0,0.0,94,0.00,,,0.10,,2013-07-03 05:47:00,
2013-07-03 02:01:00,72.0,70.0,30.04,North,5,0.0,0.0,94,0.00,,,0.10,,2013-07-03 06:01:00,
2013-07-03 02:39:00,71.0,69.0,30.04,North,5,0.0,0.0,95,0.00,,,0.10,,2013-07-03 06:39:00,
2013-07-03 02:49:00,71.0,69.0,30.04,North,5,0.0,0.0,95,0.00,,,0.10,,2013-07-03 06:49:00,
2013-07-03 02:58:00,71.0,70.0,30.04,North,5,0.0,0.0,96,0.00,,,0.10,,2013-07-03 06:58:00,
2013-07-03 03:05:00,71.0,70.0,30.04,North,5,0.0,1.0,96,0.00,,,0.10,,2013-07-03 07:05:00,
2013-07-03 03:15:00,71.0,70.0,30.04,North,5,0.0,1.0,96,0.00,,,0.10,,2013-07-03 07:15:00,
2013-07-03 03:37:00,71.0,70.0,30.03,North,5,0.0,0.0,96,0.00,,,0.10,,2013-07-03 07:37:00,
2013-07-03 03:47:00,71.0,70.0,30.03,North,5,0.0,0.0,96,0.00,,,0.10,,2013-07-03 07:47:00,
2013-07-03 04:02:00,71.0,70.0,30.03,North,5,0.0,1.0,96,0.00,,,0.10,,2013-07-03 08:02:00,
2013-07-03 04:09:00,71.0,70.0,30.03,North,5,0.0,1.0,96,0.00,,,0.10,,2013-07-03 08:09:00,
2013-07-03 04:16:00,71.0,70.0,30.03,North,5,0.0,1.0,96,0.00,,,0.10,,2013-07-03 08:16:00,
2013-07-03 04:25:00,71.0,70.0,30.03,North,5,0.0,1.0,96,0.00,,,0.10,,2013-07-03 08:25:00,
2013-07-03 04:37:00,71.0,70.0,30.03,North,5,0.0,1.0,96,0.00,,,0.10,,2013-07-03 08:37:00,
2013-07-03 04:45:00,71.0,70.0,30.03,North,5,0.0,1.0,96,0.00,,,0.10,,2013-07-03 08:45:00,
2013-07-03 04:57:00,71.0,70.0,30.03,North,5,0.0,0.0,96,0.00,,,0.10,,2013-07-03 08:57:00,
2013-07-03 05:06:00,71.0,70.0,30.04,North,5,0.0,1.0,96,0.00,,,0.10,,2013-07-03 09:06:00,
2013-07-03 05:16:00,71.0,70.0,30.04,North,5,0.0,1.0,96,0.00,,,0.10,,2013-07-03 09:16:00,
2013-07-03 05:25:00,71.0,70.0,30.05,North,5,2.0,4.0,96,0.11,,,0.21,,2013-07-03 09:25:00,
2013-07-03 05:38:00,71.0,70.0,30.05,North,5,2.0,4.0,96,0.11,,,0.21,,2013-07-03 09:38:00,
2013-07-03 05:47:00,71.0,70.0,30.05,North,5,0.0,2.0,96,0.14,,,0.24,,2013-07-03 09:47:00,
2013-07-03 05:57:00,71.0,70.0,30.05,North,5,0.0,1.0,96,0.14,,,0.24,,2013-07-03 09:57:00,
2013-07-03 06:05:00,71.0,70.0,30.05,North,5,0.0,1.0,96,0.14,,,0.24,,2013-07-03 10:05:00,
2013-07-03 06:36:00,70.0,69.0,30.06,North,5,0.0,0.0,96,0.03,,,0.24,,2013-07-03 10:36:00,
2013-07-03 06:45:00,70.0,69.0,30.06,North,5,0.0,0.0,96,0.00,,,0.24,,2013-07-03 10:45:00,
2013-07-03 06:56:00,70.0,69.0,30.06,North,5,0.0,0.0,97,0.00,,,0.24,,2013-07-03 10:56:00,
2013-07-03 07:06:00,70.0,69.0,30.06,North,5,0.0,0.0,97,0.00,,,0.24,,2013-07-03 11:06:00,
2013-07-03 07:16:00,70.0,69.0,30.06,North,5,0.0,0.0,97,0.00,,,0.24,,2013-07-03 11:16:00,
2013-07-03 07:38:00,70.0,69.0,30.07,North,5,0.0,0.0,97,0.00,,,0.19,,2013-07-03 11:38:00,
2013-07-03 07:58:00,71.0,70.0,30.07,North,5,0.0,1.0,97,0.00,,,0.19,,2013-07-03 11:58:00,
2013-07-03 08:08:00,71.0,70.0,30.07,North,5,0.0,1.0,97,0.00,,,0.19,,2013-07-03 12:08:00,
2013-07-03 08:16:00,71.0,70.0,30.08,North,5,0.0,1.0,97,0.00,,,0.19,,2013-07-03 12:16:00,
2013-07-03 08:25:00,71.0,70.0,30.08,North,5,0.0,2.0,97,0.00,,,0.19,,2013-07-03 12:25:00,
2013-07-03 08:58:00,71.0,70.0,30.09,North,5,0.0,3.0,97,0.00,,,0.19,,2013-07-03 12:58:00,
2013-07-03 09:07:00,71.0,70.0,30.09,North,5,0.0,3.0,97,0.00,,,0.19,,2013-07-03 13:07:00,
2013-07-03 09:17:00,72.0,71.0,30.09,North,5,0.0,2.0,98,0.00,,,0.19,,2013-07-03 13:17:00,
2013-07-03 09:36:00,72.0,71.0,30.10,North,5,1.0,5.0,97,0.00,,,0.19,,2013-07-03 13:36:00,
2013-07-03 09:47:00,72.0,71.0,30.11,North,5,0.0,4.0,96,0.00,,,0.19,,2013-07-03 13:47:00,
2013-07-03 09:55:00,73.0,71.0,30.11,North,5,0.0,4.0,95,0.00,,,0.19,,2013-07-03 13:55:00,
2013-07-03 10:06:00,73.0,71.0,30.11,North,5,0.0,4.0,95,0.00,,,0.19,,2013-07-03 14:06:00,
2013-07-03 10:15:00,73.0,71.0,30.10,North,5,0.0,3.0,94,0.00,,,0.19,,2013-07-03 14:15:00,
2013-07-03 10:37:00,73.0,71.0,30.10,North,5,1.0,4.0,93,0.00,,,0.19,,2013-07-03 14:37:00,
2013-07-03 10:46:00,74.0,72.0,30.10,North,5,0.0,3.0,92,0.00,,,0.19,,2013-07-03 14:46:00,
2013-07-03 10:55:00,74.0,71.0,30.10,North,5,1.0,5.0,89,0.00,,,0.19,,2013-07-03 14:55:00,
2013-07-03 11:05:00,76.0,72.0,30.10,North,5,1.0,3.0,88,0.00,,,0.19,,2013-07-03 15:05:00,
2013-07-03 11:26:00,76.0,71.0,30.11,North,5,0.0,4.0,85,0.00,,,0.18,,2013-07-03 15:26:00,
2013-07-03 11:37:00,76.0,71.0,30.11,North,5,0.0,4.0,85,0.00,,,0.18,,2013-07-03 15:37:00,
2013-07-03 11:47:00,76.0,71.0,30.11,North,5,1.0,6.0,85,0.00,,,0.18,,2013-07-03 15:47:00,
2013-07-03 11:57:00,76.0,72.0,30.11,North,5,0.0,3.0,86,0.00,,,0.18,,2013-07-03 15:57:00,
2013-07-03 12:07:00,76.0,72.0,30.11,North,5,0.0,3.0,86,0.00,,,0.18,,2013-07-03 16:07:00,
2013-07-03 12:17:00,76.0,72.0,30.11,North,5,0.0,3.0,86,0.01,,,0.19,,2013-07-03 16:17:00,
2013-07-03 12:38:00,76.0,73.0,30.11,North,5,0.0,2.0,89,0.01,,,0.16,,2013-07-03 16:38:00,
2013-07-03 12:46:00,76.0,72.0,30.11,North,5,0.0,4.0,88,0.01,,,0.16,,2013-07-03 16:46:00,
2013-07-03 13:00:00,76.0,72.0,30.10,North,5,1.0,4.0,88,0.01,,,0.16,,2013-07-03 17:00:00,
2013-07-03 13:07:00,76.0,72.0,30.10,North,5,1.0,4.0,88,0.01,,,0.16,,2013-07-03 17:07:00,
2013-07-03 13:25:00,78.0,72.0,30.09,North,5,1.0,5.0,83,0.00,,,0.16,,2013-07-03 17:25:00,
2013-07-03 13:40:00,78.0,72.0,30.09,North,5,1.0,5.0,83,0.00,,,0.16,,2013-07-03 17:40:00,
2013-07-03 13:47:00,79.0,72.0,30.09,North,5,1.0,4.0,80,0.00,,,0.16,,2013-07-03 17:47:00,
2013-07-03 14:07:00,79.0,72.0,30.09,North,5,1.0,5.0,79,0.00,,,0.16,,2013-07-03 18:07:00,
2013-07-03 14:15:00,80.0,72.0,30.08,North,5,1.0,6.0,77,0.00,,,0.16,,2013-07-03 18:15:00,
2013-07-03 14:36:00,81.0,73.0,30.08,North,5,1.0,5.0,77,0.00,,,0.16,,2013-07-03 18:36:00,
2013-07-03 14:45:00,81.0,73.0,30.07,North,5,1.0,5.0,76,0.00,,,0.16,,2013-07-03 18:45:00,
2013-07-03 14:59:00,81.0,73.0,30.07,North,5,1.0,6.0,76,0.00,,,0.16,,2013-07-03 18:59:00,
2013-07-03 15:04:00,81.0,73.0,30.07,North,5,1.0,6.0,76,0.00,,,0.16,,2013-07-03 19:04:00,
2013-07-03 15:16:00,81.0,72.0,30.06,North,5,2.0,9.0,74,0.00,,,0.16,,2013-07-03 19:16:00,
2013-07-03 15:30:00,81.0,73.0,30.06,North,5,1.0,7.0,77,0.00,,,0.15,,2013-07-03 19:30:00,
2013-07-03 15:46:00,82.0,73.0,30.06,North,5,2.0,6.0,74,0.00,,,0.15,,2013-07-03 19:46:00,
2013-07-03 16:04:00,81.0,73.0,30.05,North,5,4.0,9.0,76,0.00,,,0.15,,2013-07-03 20:04:00,
2013-07-03 16:14:00,81.0,73.0,30.05,North,5,3.0,9.0,76,0.00,,,0.15,,2013-07-03 20:14:00,
2013-07-03 16:25:00,80.0,73.0,30.05,North,5,1.0,6.0,79,0.00,,,0.15,,2013-07-03 20:25:00,
2013-07-03 16:37:00,79.0,72.0,30.05,North,5,2.0,6.0,80,0.00,,,0.15,,2013-07-03 20:37:00,
2013-07-03 16:45:00,79.0,72.0,30.05,North,5,2.0,6.0,80,0.00,,,0.15,,2013-07-03 20:45:00,
2013-07-03 16:56:00,78.0,72.0,30.06,North,5,1.0,6.0,82,0.00,,,0.15,,2013-07-03 20:56:00,
2013-07-03 17:06:00,78.0,72.0,30.06,North,5,1.0,6.0,82,0.00,,,0.15,,2013-07-03 21:06:00,
2013-07-03 17:13:00,78.0,72.0,30.07,North,5,0.0,6.0,81,0.00,,,0.15,,2013-07-03 21:13:00,
2013-07-03 17:27:00,78.0,71.0,30.07,North,5,0.0,7.0,80,0.00,,,0.15,,2013-07-03 21:27:00,
2013-07-03 17:44:00,76.0,71.0,30.09,North,5,3.0,12.0,84,0.33,,,0.48,,2013-07-03 21:44:00,
2013-07-03 17:55:00,73.0,70.0,30.09,North,5,5.0,10.0,89,0.40,,,0.55,,2013-07-03 21:55:00,
2013-07-03 18:06:00,73.0,70.0,30.09,North,5,5.0,10.0,89,0.40,,,0.55,,2013-07-03 22:06:00,
2013-07-03 18:15:00,72.0,69.0,30.10,North,5,1.0,6.0,91,0.45,,,0.60,,2013-07-03 22:15:00,
2013-07-03 18:26:00,71.0,69.0,30.11,North,5,0.0,3.0,93,0.48,,,0.63,,2013-07-03 22:26:00,
2013-07-03 18:37:00,71.0,69.0,30.11,North,5,0.0,3.0,93,0.48,,,0.63,,2013-07-03 22:37:00,
2013-07-03 18:45:00,71.0,69.0,30.12,North,5,1.0,3.0,94,0.20,,,0.68,,2013-07-03 22:45:00,
2013-07-03 18:57:00,70.0,68.0,30.11,North,5,0.0,3.0,95,0.20,,,0.75,,2013-07-03 22:57:00,
2013-07-03 19:05:00,70.0,68.0,30.11,North,5,0.0,3.0,95,0.20,,,0.75,,2013-07-03 23:05:00,
2013-07-03 19:14:00,70.0,68.0,30.12,North,5,0.0,1.0,95,0.22,,,0.82,,2013-07-03 23:14:00,
2013-07-03 19:39:00,70.0,68.0,30.12,North,5,0.0,3.0,95,0.50,,,1.18,,2013-07-03 23:39:00,
2013-07-03 19:45:00,70.0,68.0,30.12,North,5,0.0,3.0,95,0.50,,,1.18,,2013-07-03 23:45:00,
2013-07-03 19:56:00,69.0,68.0,30.13,North,5,0.0,4.0,95,0.47,,,1.22,,2013-07-03 23:56:00,
2013-07-03 20:04:00,69.0,67.0,30.12,North,5,0.0,2.0,94,0.42,,,1.24,,2013-07-04 00:04:00,
2013-07-03 20:16:00,69.0,67.0,30.12,North,5,0.0,2.0,94,0.42,,,1.24,,2013-07-04 00:16:00,
2013-07-03 20:25:00,69.0,68.0,30.12,North,5,0.0,1.0,95,0.26,,,1.26,,2013-07-04 00:25:00,
2013-07-03 20:37:00,68.0,66.0,30.12,North,5,0.0,1.0,94,0.08,,,1.26,,2013-07-04 00:37:00,
2013-07-03 20:48:00,68.0,66.0,30.12,North,5,0.0,1.0,94,0.08,,,1.26,,2013-07-04 00:48:00,
2013-07-03 20:57:00,68.0,67.0,30.12,North,5,0.0,1.0,95,0.04,,,1.26,,2013-07-04 00:57:00,
2013-07-03 21:04:00,68.0,67.0,30.12,North,5,0.0,0.0,95,0.02,,,1.26,,2013-07-04 01:04:00,
2013-07-03 21:15:00,68.0,67.0,30.12,North,5,0.0,0.0,95,0.02,,,1.26,,2013-07-04 01:15:00,
2013-07-03 21:38:00,67.0,66.0,30.10,North,5,0.0,0.0,95,0.00,,,1.26,,2013-07-04 01:38:00,
2013-07-03 21:43:00,67.0,66.0,30.10,North,5,0.0,0.0,95,0.00,,,1.26,,2013-07-04 01:43:00,
2013-07-03 21:56:00,67.0,65.0,30.10,North,5,0.0,0.0,94,0.00,,,1.26,,2013-07-04 01:56:00,
2013-07-03 22:48:00,66.0,65.0,30.12,North,5,0.0,0.0,95,0.00,,,1.26,,2013-07-04 02:48:00,
2013-07-03 22:57:00,65.0,64.0,30.13,North,5,0.0,0.0,96,0.00,,,1.26,,2013-07-04 02:57:00,
2013-07-03 23:05:00,65.0,64.0,30.13,North,5,0.0,0.0,96,0.00,,,1.26,,2013-07-04 03:05:00,
2013-07-03 23:14:00,65.0,64.0,30.13,North,5,0.0,0.0,96,0.00,,,1.26,,2013-07-04 03:14:00,
2013-07-03 23:27:00,65.0,64.0,30.14,North,5,0.0,0.0,96,0.00,,,1.26,,2013-07-04 03:27:00,
2013-07-03 23:35:00,65.0,64.0,30.14,North,5,0.0,0.0,96,0.00,,,1.26,,2013-07-04 03:35:00,
2013-07-03 23:46:00,65.0,64.0,30.14,North,5,0.0,0.0,97,0.00,,,1.26,,2013-07-04 03:46:00,
2013-07-03 23:57:00,66.0,65.0,30.15,North,5,0.0,0.0,97,0.00,,,1.26,,2013-07-04 03:57:00,